Agate Beach, Washington
Current Conditions -  °F | °C
As of 1:53 AM on Saturday 01 Nov 2014 (Local Time) from KCLM Reporting Station
Clear Clear  
Wind Chill: 40°   Ceiling: Unl
Heat Index: 44°   Visibility: 10mi
Dew Point: 40°   Wind: 8mph
Humidity: 85%   Direction: 230°SW
Pressure: 29.88"   Gusts: NA
Location:  48.1359°N, 123.734°W
Report Text: KCLM 010853Z AUTO 23007KT 10SM CLR 07/04 A2988 RMK AO2 SLP117 T00670044 55004
Loading
Personal Weather Stations






























Interactive Weather Map New forecast layout! Learn more

10-Day Weather Forecast

Advertisements
Track Severe Weather on mobile